Reno (UNR), Valley Road, Nevada Weather observations

Data are for observation ending at time listed.
 Day   Time    Ave.   Ave.  Ave.  Vector   Max.    Total    Solar   Rl      Baro.   Ave.  
  of    of     Air    Rel.  Wind   Wind    Wind   Precip.   Rad.    in      Pres.   Soil  
Year   Day     Temp.  Hum.  Speed  Dir.    Gust                                     Temp. 
2017   (PST)    F      %     mph   deg.    mph      in.     W/m2    W/m2     mb.     F   
-----------------------------------------------------------------------------------------
  17    4:10   25.3    90    2.1   111      3.3     0.00       0     295    863.9   33.9
  17    4:20   25.4    90    3.3   134      5.1     0.00       0     295    863.9   33.9
  17    4:30   25.3    90    4.3   135      6.8     0.00       0     295    864.0   33.9
  17    4:40   25.3    91    2.4   146      5.9     0.00       0     295    864.0   33.9
  17    4:50   25.4    90    3.1   129      5.8     0.00       0     295    864.1   33.9
  17    5:00   25.1    90    2.5    70      4.9     0.00       0     295    864.1   33.9
  17    5:10   25.3    90    1.9    89      3.8     0.00       0     295    864.1   33.9
  17    5:20   25.1    90    2.4    22      4.0     0.00       0     295    864.3   33.9
  17    5:30   25.1    90    4.2    47      7.0     0.00       0     295    864.3   33.9
  17    5:40   24.9    90    4.4    45      5.8     0.00       0     295    864.3   33.9
  17    5:50   24.8    90    4.3    49      7.0     0.00       0     295    864.3   33.9
  17    6:00   24.9    90    3.3    55      4.9     0.00       0     295    864.3   33.9
  17    6:10   25.0    90    3.7    62      5.9     0.00       0     295    864.2   33.9
  17    6:20   25.1    90    3.5    83      5.1     0.00       0     295    864.2   33.9
  17    6:30   25.1    90    2.3    77      4.9     0.00       0     295    864.1   33.9
  17    6:40   25.1    90    2.1    84      5.1     0.00       0     295    864.0   33.9
  17    6:50   25.2    90    3.3   111      6.1     0.00       0     295    864.0   33.9
  17    7:00   25.2    90    4.1   146      7.5     0.00       0     295    863.9   33.9
  17    7:10   25.3    90    4.4   136      7.5     0.00       1     295    864.0   33.9
  17    7:20   25.3    91    4.8   149      7.4     0.00       3     295    864.0   33.9
  17    7:30   25.1    91    5.1   147      8.7     0.00       5     295    864.0   33.9
  17    7:40   25.2    91    5.0   152      8.1     0.00      10     295    864.0   33.9
  17    7:50   25.2    91    4.5   157      7.9     0.00      16     295    864.0   33.9
  17    8:00   25.1    91    3.5   212      5.3     0.00      19     295    864.0   33.9
  17    8:10   25.1    91    4.9   190      8.3     0.00      25     295    864.1   33.9
  17    8:20   24.8    92    4.0   216      7.9     0.00      30     295    864.1   33.9
  17    8:30   25.0    91    2.9   177      7.5     0.00      40     296    863.9   33.9
  17    8:40   24.9    91    4.1   175      7.5     0.00      50     299    863.8   33.9
  17    8:50   25.3    90    3.6   193      6.7     0.00      61     300    863.8   33.9
  17    9:00   25.3    90    2.5   282      4.3     0.00      66     299    864.2   33.9
  17    9:10   25.4    89    2.7   358      4.1     0.00      92     299    863.8   33.9
  17    9:20   26.0    89    2.1   191      4.7     0.00     102     302    863.7   33.9
  17    9:30   26.4    87    2.1   184      5.0     0.00     108     297    864.0   33.9
  17    9:40   26.2    87    2.8   133      4.8     0.00     133     299    864.0   33.9
  17    9:50   26.3    87    2.5   148      4.5     0.00     175     300    863.7   33.9
  17   10:00   27.3    86    1.9   184      4.9     0.00     187     302    863.7   33.9
  17   10:10   27.3    85    2.3   282      5.0     0.00     202     303    863.6   33.9
  17   10:20   28.1    83    1.4    82      2.7     0.00     290     292    863.2   33.9
  17   10:30   29.0    81    2.7   167      5.2     0.00     311     291    862.9   33.9
  17   10:40   28.6    82    2.7    66      5.9     0.00     294     294    862.6   33.9
  17   10:50   29.1    81    2.2   118      4.6     0.00     266     290    862.2   33.9
  17   11:00   30.0    79    0.9     0      2.3     0.00     347     284    862.0   33.9
  17   11:10   30.0    78    2.4   314      3.8     0.00     369     272    861.8   33.9
  17   11:20   29.6    78    2.2   348      3.3     0.00     423     274    861.7   33.8
  17   11:30   30.2    78    2.1    52      4.5     0.00     398     270    861.4   33.8
  17   11:40   30.9    76    2.2   337      3.8     0.00     533     272    861.0   33.8
  17   11:50   31.1    75    1.9   330      4.6     0.00     501     276    860.8   33.8
  17   12:00   31.8    74    1.8   344      4.5     0.00     430     279    860.7   33.8
  17   12:10   32.4    74    2.4    83      6.3     0.00     352     282    860.3   33.8
  17   12:20   31.2    76    3.0    38      5.9     0.00     344     279    860.2   33.8
  17   12:30   31.4    76    2.4    29      4.6     0.00     312     276    860.1   33.8
  17   12:40   32.1    75    1.6   311      2.9     0.00     470     270    860.0   33.8
  17   12:50   33.3    72    1.8   357      5.0     0.00     565     273    860.0   33.8
  17   13:00   33.9    71    1.8   132      3.9     0.00     518     277    859.8   33.8
  17   13:10   33.9    72    3.4    58      6.0     0.00     378     280    859.6   33.8
  17   13:20   32.8    73    3.1    15      7.4     0.00     331     277    859.5   33.8
  17   13:30   33.6    72    2.9    59      6.0     0.00     336     280    859.4   33.8
  17   13:40   33.4    73    3.1    23      4.9     0.00     321     283    859.3   33.8
  17   13:50   33.5    73    3.2    44      6.2     0.00     339     284    859.2   33.8
  17   14:00   34.1    72    3.5    82      7.1     0.00     385     283    859.0   33.8
  17   14:10   33.8    72    3.4   114      7.0     0.00     358     279    858.9   33.8
  17   14:20   34.6    70    1.6    58      5.1     0.00     336     276    858.7   33.8
  17   14:30   35.2    69    4.2    86      7.3     0.00     305     279    858.5   33.8
  17   14:40   34.0    71    4.1    42      7.0     0.00     228     279    858.6   33.8
  17   14:50   33.9    70    2.9   344      7.0     0.00     269     285    858.8   33.8
  17   15:00   35.1    69    2.3   329      4.3     0.00     316     285    858.8   33.8
  17   15:10   35.4    69    1.7   117      3.3     0.00     247     280    858.8   33.8
  17   15:20   35.7    67    1.9   121      3.8     0.00     176     284    858.7   33.8
  17   15:30   35.3    68    2.3   101      4.9     0.00     160     291    858.6   33.8
  17   15:40   34.9    70    2.6    72      4.5     0.00     161     289    858.8   33.8
  17   15:50   35.0    69    2.4    40      4.5     0.00     158     281    858.8   33.8
  17   16:00   35.2    69    2.9    12      4.0     0.00     155     277    859.0   33.8
  17   16:10   35.0    69    3.2    46      5.2     0.00     109     274    858.9   33.8
  17   16:20   34.9    70    2.5    94      5.4     0.00      70     271    858.9   33.8
  17   16:30   34.5    71    3.4    74      5.1     0.00      51     267    859.0   33.9
  17   16:40   34.0    72    3.6    65      5.7     0.00      35     265    859.0   33.9
  17   16:50   33.7    73    3.0    81      5.4     0.00      20     262    859.3   33.9
  17   17:00   33.2    75    3.0    83      4.6     0.00       8     259    859.4   33.9
  17   17:10   32.8    76    3.0    84      4.1     0.00       2     264    859.7   33.9
  17   17:20   32.6    76    2.8    53      4.8     0.00       1     265    859.9   33.9
  17   17:30   32.3    77    2.6    37      4.8     0.00       0     263    860.1   33.9
  17   17:40   32.1    78    1.8    71      3.3     0.00       0     263    860.1   33.9
  17   17:50   31.9    78    2.0    64      2.8     0.00       0     262    860.2   33.9
  17   18:00   31.7    79    1.8    53      2.7     0.00       0     264    860.3   33.9
  17   18:10   31.6    79    2.2    48      3.3     0.00       0     264    860.2   33.9
  17   18:20   31.5    79    2.7    39      3.6     0.00       0     264    860.2   33.9
  17   18:30   31.1    81    2.5    16      3.6     0.00       0     260    860.3   33.9
  17   18:40   30.8    82    2.3    66      3.4     0.00       0     259    860.4   33.9
  17   18:50   30.7    82    1.2    51      2.7     0.00       0     259    860.6   33.9
  17   19:00   30.4    82    2.8    33      4.3     0.00       0     260    860.6   33.9
  17   19:10   30.1    83    2.6    11      4.1     0.00       0     262    860.6   33.9
  17   19:20   30.0    84    2.5   350      3.4     0.00       0     266    860.7   33.9
  17   19:30   30.0    85    1.9   336      2.8     0.00       0     261    860.8   33.9
  17   19:40   29.6    86    0.2   320      0.9     0.00       0     264    860.8   33.9
  17   19:50   29.3    88    0.2   286      1.3     0.00       0     267    860.7   33.9
  17   20:00   29.2    88    0.8   334      2.3     0.00       0     267    860.7   33.9
  17   20:10   29.2    88    1.8   302      2.5     0.00       0     267    860.7   33.9
  17   20:20   29.1    88    1.2   335      2.9     0.00       0     273    860.7   33.9
  17   20:30   29.0    88    1.6    66      3.1     0.00       0     279    860.6   33.9
  17   20:40   29.1    87    1.5    16      3.1     0.00       0     279    860.7   33.9
  17   20:50   29.0    87    2.7    25      3.6     0.00       0     272    860.6   33.9
  17   21:00   29.1    87    2.0   353      3.4     0.00       0     271    860.6   33.9
  17   21:10   29.2    87    0.8    25      2.7     0.00       0     272    860.5   33.9
  17   21:20   29.1    88    0.7   329      3.4     0.00       0     268    860.5   33.9
  17   21:30   29.0    89    0.8   282      3.4     0.00       0     267    860.5   33.9
  17   21:40   28.8    89    0.7   286      1.7     0.00       0     267    860.6   33.9
  17   21:50   28.7    89    0.6    88      1.7     0.00       0     268    860.5   33.9
  17   22:00   29.0    89    0.5   107      1.8     0.00       0     275    860.5   33.9
  17   22:10   28.7    90    0.8    25      2.2     0.00       0     275    860.5   33.9
  17   22:20   28.7    91    1.2   302      2.0     0.00       0     275    860.5   33.9
  17   22:30   28.6    90    1.0   314      2.5     0.00       0     280    860.4   33.9
  17   22:40   28.5    90    2.4   350      4.3     0.00       0     285    860.4   33.9
  17   22:50   28.8    90    0.8   129      3.1     0.00       0     287    860.5   33.9
  17   23:00   29.0    91    1.4   330      2.7     0.00       0     291    860.4   33.9
  17   23:10   28.8    91    1.3    15      3.6     0.00       0     295    860.2   33.9
  17   23:20   29.0    91    0.8   315      2.6     0.00       0     295    860.2   33.9
  17   23:30   29.3    90    2.0   356      3.1     0.00       0     295    860.1   33.9
  17   23:40   29.1    91    1.1    52      2.8     0.00       0     304    860.0   33.9
  17   23:50   29.5    89    1.0   120      2.8     0.00       0     308    860.1   33.9
  18    0:00   29.8    88    0.8   121      3.3     0.00       0     306    860.0   33.9
  18    0:10   30.0    87    1.2   113      2.8     0.00       0     306    860.0   33.9
  18    0:20   30.0    87    1.1    99      2.5     0.00       0     306    859.9   33.9
  18    0:30   29.9    88    1.9    23      2.8     0.00       0     312    859.8   33.9
  18    0:40   30.1    88    0.9   124      2.4     0.00       0     317    859.6   33.9
  18    0:50   30.3    87    1.2    78      3.1     0.00       0     319    859.7   33.9
  18    1:00   30.5    86    2.8   104      5.6     0.00       0     318    859.8   33.9
  18    1:10   30.5    87    2.2    61      5.0     0.00       0     318    859.7   33.9
  18    1:20   30.5    88    2.9    73      4.5     0.00       0     320    859.6   33.9
  18    1:30   30.4    88    3.9   124      6.2     0.00       0     320    859.3   33.9
  18    1:40   30.5    87    3.3   120      6.2     0.00       0     313    859.4   33.9
  18    1:50   30.4    87    2.1   128      5.2     0.00       0     307    859.2   33.9
  18    2:00   30.3    87    2.9   160      5.1     0.00       0     310    859.0   33.9
  18    2:10   30.3    88    2.9   286      5.8     0.00       0     310    858.8   33.9
  18    2:20   30.3    88    3.4   300      6.1     0.00       0     301    858.7   33.9
  18    2:30   30.2    88    3.2   334      5.1     0.00       0     288    858.5   33.8
  18    2:40   30.2    88    2.9   305      5.1     0.00       0     286    858.3   33.8
  18    2:50   30.2    88    2.9    86      4.1     0.00       0     293    858.2   33.8
  18    3:00   30.4    88    3.0    42      4.5     0.00       0     287    858.0   33.8
  18    3:10   30.3    88    2.0   249      3.7     0.00       0     283    858.0   33.8
  18    3:20   30.3    89    3.2   237      5.7     0.00       0     286    858.0   33.8
  18    3:30   30.4    89    1.5   296      4.8     0.00       0     296    857.8   33.8
  18    3:40   30.4    90    0.2   233      1.6     0.00       0     303    858.1   33.8
  18    3:50   30.4    90    2.4    51      4.0     0.00       0     309    858.1   33.8
  18    4:00   30.3    90    2.9    63      4.6     0.00       0     301    858.0   33.8

Return to Reno (UNR), Nevada graphs page.


Western Regional Climate Center,wrcc@dri.edu